createdAt,value
2018-03-17T00:00:28.576Z,6.90
2018-03-17T00:02:54.516Z,6.90
2018-03-17T00:05:21.359Z,6.70
2018-03-17T00:07:47.296Z,6.70
2018-03-17T00:10:14.029Z,6.80
2018-03-17T00:12:39.977Z,6.70
2018-03-17T00:15:06.095Z,6.80
2018-03-17T00:17:32.041Z,6.70
2018-03-17T00:19:58.016Z,6.70
2018-03-17T00:22:24.124Z,6.60
2018-03-17T00:24:50.090Z,6.70
2018-03-17T00:27:16.091Z,6.70
2018-03-17T00:29:42.040Z,6.60
2018-03-17T00:32:08.044Z,6.70
2018-03-17T00:34:34.716Z,6.60
2018-03-17T00:37:00.795Z,6.50
2018-03-17T00:39:27.509Z,6.40
2018-03-17T00:41:53.517Z,6.40
2018-03-17T00:44:19.476Z,6.40
2018-03-17T00:46:46.192Z,6.20
2018-03-17T00:49:12.182Z,6.20
2018-03-17T00:51:38.132Z,6.40
2018-03-17T00:54:04.223Z,6.30
2018-03-17T00:56:30.168Z,6.40
2018-03-17T00:58:56.152Z,6.50
2018-03-17T01:01:22.111Z,6.50
2018-03-17T01:03:48.217Z,6.70
2018-03-17T01:06:14.160Z,6.70
2018-03-17T01:08:40.100Z,6.60
2018-03-17T01:11:06.137Z,6.80
2018-03-17T01:13:32.109Z,6.70
2018-03-17T01:15:58.243Z,6.80
2018-03-17T01:18:24.192Z,6.90
2018-03-17T01:20:50.304Z,7.00
2018-03-17T01:23:16.241Z,7.00
2018-03-17T01:25:42.220Z,7.00
2018-03-17T01:28:08.160Z,7.00
2018-03-17T01:30:34.142Z,7.00
2018-03-17T01:33:00.104Z,7.00
2018-03-17T01:35:26.208Z,7.00
2018-03-17T01:37:52.148Z,7.00
2018-03-17T01:40:18.097Z,7.10
2018-03-17T01:42:44.057Z,7.10
2018-03-17T01:45:10.009Z,7.10
2018-03-17T01:47:35.977Z,7.00
2018-03-17T01:50:01.915Z,7.00
2018-03-17T01:52:28.023Z,7.00
2018-03-17T01:54:53.976Z,6.90
2018-03-17T01:57:19.952Z,6.90
2018-03-17T01:59:45.918Z,6.80
2018-03-17T02:02:11.891Z,6.90
2018-03-17T02:04:37.872Z,6.90
2018-03-17T02:07:03.964Z,6.80
2018-03-17T02:09:29.902Z,6.80
2018-03-17T02:11:55.904Z,6.80
2018-03-17T02:14:21.975Z,6.80
2018-03-17T02:16:47.940Z,6.70
2018-03-17T02:19:13.924Z,6.70
2018-03-17T02:21:39.913Z,6.60
2018-03-17T02:24:06.584Z,6.40
2018-03-17T02:26:32.546Z,6.50
2018-03-17T02:28:58.631Z,6.40
2018-03-17T02:31:24.597Z,6.30
2018-03-17T02:33:50.576Z,6.30
2018-03-17T02:36:16.556Z,6.30
2018-03-17T02:38:42.540Z,6.20
2018-03-17T02:41:08.491Z,6.10
2018-03-17T02:43:35.348Z,5.90
2018-03-17T02:46:02.034Z,5.80
2018-03-17T02:48:28.021Z,5.80
2018-03-17T02:50:53.981Z,5.70
2018-03-17T02:53:20.091Z,5.50
2018-03-17T02:55:46.077Z,5.50
2018-03-17T02:58:12.791Z,5.30
2018-03-17T03:00:38.795Z,5.30
2018-03-17T03:03:04.785Z,5.30
2018-03-17T03:05:30.724Z,5.20
2018-03-17T03:07:56.717Z,5.10
2018-03-17T03:10:22.712Z,5.10
2018-03-17T03:12:48.795Z,5.00
2018-03-17T03:15:14.756Z,5.00
2018-03-17T03:17:40.740Z,5.00
2018-03-17T03:20:06.716Z,4.90
2018-03-17T03:22:33.400Z,4.80
2018-03-17T03:24:59.372Z,4.80
2018-03-17T03:27:26.051Z,4.60
2018-03-17T03:29:52.130Z,4.50
2018-03-17T03:32:18.065Z,4.50
2018-03-17T03:34:44.789Z,4.40
2018-03-17T03:37:10.720Z,4.40
2018-03-17T03:39:37.446Z,4.40
2018-03-17T03:42:03.393Z,4.40
2018-03-17T03:44:29.393Z,4.40
2018-03-17T03:46:55.499Z,4.40
2018-03-17T03:49:21.443Z,4.30
2018-03-17T03:51:47.472Z,4.40
2018-03-17T03:54:14.170Z,4.20
2018-03-17T03:56:40.153Z,4.20
2018-03-17T03:59:06.088Z,4.20
2018-03-17T04:01:32.201Z,4.10
2018-03-17T04:03:58.175Z,4.10
2018-03-17T04:06:24.189Z,4.00
2018-03-17T04:08:50.160Z,4.00
2018-03-17T04:11:16.861Z,3.90
2018-03-17T04:13:43.000Z,3.90
2018-03-17T04:16:08.992Z,3.80
2018-03-17T04:18:35.111Z,3.80
2018-03-17T04:21:01.072Z,3.70
2018-03-17T04:23:27.025Z,3.70
2018-03-17T04:25:53.006Z,3.70
2018-03-17T04:28:18.972Z,3.70
2018-03-17T04:30:44.952Z,3.60
2018-03-17T04:33:10.892Z,3.60
2018-03-17T04:35:37.724Z,3.60
2018-03-17T04:38:03.695Z,3.70
2018-03-17T04:40:29.673Z,3.60
2018-03-17T04:42:55.628Z,3.60
2018-03-17T04:45:21.617Z,3.60
2018-03-17T04:47:47.610Z,3.60
2018-03-17T04:50:13.566Z,3.40
2018-03-17T04:52:39.659Z,3.40
2018-03-17T04:55:05.596Z,3.30
2018-03-17T04:57:31.596Z,3.40
2018-03-17T04:59:57.590Z,3.30
2018-03-17T05:02:24.256Z,3.20
2018-03-17T05:04:50.229Z,3.20
2018-03-17T05:07:16.931Z,3.10
2018-03-17T05:09:43.017Z,3.10
2018-03-17T05:12:08.953Z,3.10
2018-03-17T05:14:35.036Z,3.10
2018-03-17T05:17:01.897Z,3.00
2018-03-17T05:19:27.851Z,2.90
2018-03-17T05:21:53.804Z,2.90
2018-03-17T05:24:19.828Z,2.90
2018-03-17T05:26:45.761Z,2.80
2018-03-17T05:29:11.720Z,2.80
2018-03-17T05:31:37.683Z,2.80
2018-03-17T05:34:03.617Z,2.80
2018-03-17T05:36:29.602Z,2.80
2018-03-17T05:38:55.552Z,2.80
2018-03-17T05:41:21.660Z,2.90
2018-03-17T05:43:47.616Z,2.90
2018-03-17T05:46:14.359Z,2.80
2018-03-17T05:48:41.062Z,2.90
2018-03-17T05:51:07.069Z,2.80
2018-03-17T05:53:33.001Z,2.80
2018-03-17T05:55:59.050Z,2.80
2018-03-17T05:58:24.976Z,2.70
2018-03-17T06:00:50.955Z,2.70
2018-03-17T06:03:16.936Z,2.70
2018-03-17T06:05:42.902Z,2.70
2018-03-17T06:08:08.858Z,2.70
2018-03-17T06:10:34.954Z,2.70
2018-03-17T06:13:00.920Z,2.60
2018-03-17T06:15:27.745Z,2.60
2018-03-17T06:17:53.734Z,2.50
2018-03-17T06:20:19.689Z,2.60
2018-03-17T06:22:45.676Z,2.60
2018-03-17T06:25:11.617Z,2.50
2018-03-17T06:27:37.616Z,2.50
2018-03-17T06:30:03.571Z,2.50
2018-03-17T06:32:29.528Z,2.60
2018-03-17T06:34:55.495Z,2.60
2018-03-17T06:37:21.449Z,2.60
2018-03-17T06:39:47.458Z,2.60
2018-03-17T06:42:13.387Z,2.60
2018-03-17T06:44:39.365Z,2.60
2018-03-17T06:47:05.321Z,2.50
2018-03-17T06:49:31.304Z,2.50
2018-03-17T06:51:57.258Z,2.50
2018-03-17T06:54:23.220Z,2.50
2018-03-17T06:56:49.956Z,2.50
2018-03-17T06:59:15.901Z,2.50
2018-03-17T07:01:41.984Z,2.50
2018-03-17T07:04:07.948Z,2.50
2018-03-17T07:06:33.927Z,2.50
2018-03-17T07:08:59.889Z,2.50
2018-03-17T07:11:26.607Z,2.50
2018-03-17T07:13:52.716Z,2.50
2018-03-17T07:16:18.656Z,2.50
2018-03-17T07:18:45.504Z,2.50
2018-03-17T07:21:12.216Z,2.40
2018-03-17T07:23:38.188Z,2.40
2018-03-17T07:26:04.133Z,2.40
2018-03-17T07:28:30.095Z,2.40
2018-03-17T07:30:56.071Z,2.40
2018-03-17T07:33:22.030Z,2.40
2018-03-17T07:35:48.037Z,2.40
2018-03-17T07:38:13.996Z,2.50
2018-03-17T07:40:40.746Z,2.40
2018-03-17T07:43:07.416Z,2.40
2018-03-17T07:45:33.530Z,2.40
2018-03-17T07:47:59.502Z,2.40
2018-03-17T07:50:25.443Z,2.40
2018-03-17T07:52:52.222Z,2.30
2018-03-17T07:55:18.192Z,2.30
2018-03-17T07:57:44.203Z,2.30
2018-03-17T08:00:10.165Z,2.40
2018-03-17T08:02:36.947Z,2.40
2018-03-17T08:05:02.900Z,2.40
2018-03-17T08:07:28.889Z,2.40
2018-03-17T08:09:54.821Z,2.50
2018-03-17T08:12:20.814Z,2.50
2018-03-17T08:14:46.920Z,2.60
2018-03-17T08:17:13.592Z,2.50
2018-03-17T08:19:39.672Z,2.50
2018-03-17T08:22:06.348Z,2.50
2018-03-17T08:24:32.324Z,2.50
2018-03-17T08:26:58.263Z,2.50
2018-03-17T08:29:24.254Z,2.50
2018-03-17T08:31:50.219Z,2.50
2018-03-17T08:34:16.331Z,2.60
2018-03-17T08:36:43.036Z,2.70
2018-03-17T08:39:09.055Z,2.70
2018-03-17T08:41:34.995Z,2.70
2018-03-17T08:44:01.704Z,2.70
2018-03-17T08:46:27.693Z,2.70
2018-03-17T08:48:53.641Z,2.60
2018-03-17T08:51:19.630Z,2.60
2018-03-17T08:53:45.572Z,2.40
2018-03-17T08:56:11.588Z,2.40
2018-03-17T08:58:37.532Z,2.40
2018-03-17T09:01:03.537Z,2.40
2018-03-17T09:03:29.532Z,2.50
2018-03-17T09:05:55.451Z,2.50
2018-03-17T09:08:22.159Z,2.40
2018-03-17T09:10:48.310Z,2.40
2018-03-17T09:13:14.360Z,2.50
2018-03-17T09:15:40.340Z,2.40
2018-03-17T09:18:06.367Z,2.40
2018-03-17T09:20:32.297Z,2.30
2018-03-17T09:22:58.373Z,2.40
2018-03-17T09:25:24.336Z,2.40
2018-03-17T09:27:50.436Z,2.40
2018-03-17T09:30:16.413Z,2.40
2018-03-17T09:32:42.396Z,2.40
2018-03-17T09:35:08.331Z,2.50
2018-03-17T09:37:34.304Z,2.60
2018-03-17T09:40:00.253Z,2.50
2018-03-17T09:42:26.356Z,2.50
2018-03-17T09:44:52.327Z,2.60
2018-03-17T09:47:19.033Z,2.60
2018-03-17T09:49:44.993Z,2.60
2018-03-17T09:52:11.709Z,2.70
2018-03-17T09:54:37.811Z,2.60
2018-03-17T09:57:03.758Z,2.70
2018-03-17T09:59:29.721Z,2.70
2018-03-17T10:01:55.711Z,2.70
2018-03-17T10:04:21.660Z,2.70
2018-03-17T10:06:47.644Z,2.70
2018-03-17T10:09:13.581Z,2.80
2018-03-17T10:11:39.689Z,2.80
2018-03-17T10:14:05.849Z,2.70
2018-03-17T10:16:31.860Z,2.80
2018-03-17T10:18:58.570Z,2.70
2018-03-17T10:21:24.504Z,2.70
2018-03-17T10:23:50.482Z,2.60
2018-03-17T10:26:16.452Z,2.70
2018-03-17T10:28:42.555Z,2.60
2018-03-17T10:31:08.708Z,2.60
2018-03-17T10:33:34.694Z,2.60
2018-03-17T10:36:00.643Z,2.60
2018-03-17T10:38:26.643Z,2.70
2018-03-17T10:40:52.592Z,2.80
2018-03-17T10:43:18.679Z,2.70
2018-03-17T10:45:45.378Z,2.80
2018-03-17T10:48:12.088Z,2.90
2018-03-17T10:50:38.090Z,2.90
2018-03-17T10:53:04.045Z,2.90
2018-03-17T10:55:30.763Z,2.90
2018-03-17T10:57:56.739Z,2.90
2018-03-17T11:00:22.718Z,2.90
2018-03-17T11:02:48.665Z,3.00
2018-03-17T11:05:14.771Z,3.10
2018-03-17T11:07:40.732Z,3.10
2018-03-17T11:10:06.721Z,3.00
2018-03-17T11:12:32.799Z,2.90
2018-03-17T11:14:58.937Z,2.80
2018-03-17T11:17:24.883Z,2.80
2018-03-17T11:19:50.894Z,2.70
2018-03-17T11:22:16.853Z,2.70
2018-03-17T11:24:43.713Z,2.60
2018-03-17T11:27:09.698Z,2.70
2018-03-17T11:29:35.655Z,2.70
2018-03-17T11:32:01.619Z,2.80
2018-03-17T11:34:27.568Z,2.80
2018-03-17T11:36:53.684Z,2.80
2018-03-17T11:39:19.615Z,2.80
2018-03-17T11:41:45.596Z,2.90
2018-03-17T11:44:11.552Z,2.80
2018-03-17T11:46:37.499Z,2.80
2018-03-17T11:49:04.241Z,2.80
2018-03-17T11:51:30.927Z,2.80
2018-03-17T11:53:57.016Z,2.80
2018-03-17T11:56:22.980Z,2.80
2018-03-17T11:58:48.972Z,2.80
2018-03-17T12:01:14.924Z,2.80
2018-03-17T12:03:40.904Z,2.80
2018-03-17T12:06:06.851Z,2.80
2018-03-17T12:08:32.789Z,2.80
2018-03-17T12:10:58.885Z,2.90
2018-03-17T12:13:25.003Z,3.00
2018-03-17T12:15:51.023Z,2.90
2018-03-17T12:18:17.033Z,2.90
2018-03-17T12:20:43.751Z,2.90
2018-03-17T12:23:09.753Z,2.90
2018-03-17T12:25:35.852Z,3.00
2018-03-17T12:28:01.826Z,3.00
2018-03-17T12:30:27.765Z,3.10
2018-03-17T12:32:54.549Z,3.00
2018-03-17T12:35:20.504Z,3.00
2018-03-17T12:37:46.456Z,3.00
2018-03-17T12:40:12.405Z,2.90
2018-03-17T12:42:38.406Z,2.90
2018-03-17T12:45:04.388Z,2.90
2018-03-17T12:47:30.399Z,2.90
2018-03-17T12:49:56.465Z,2.90
2018-03-17T12:52:23.189Z,2.90
2018-03-17T12:54:49.917Z,2.90
2018-03-17T12:57:15.847Z,2.90
2018-03-17T12:59:41.961Z,2.90
2018-03-17T13:02:07.913Z,2.90
2018-03-17T13:04:33.889Z,3.00
2018-03-17T13:06:59.842Z,2.90
2018-03-17T13:09:25.849Z,2.90
2018-03-17T13:11:51.785Z,3.00
2018-03-17T13:14:17.928Z,3.00
2018-03-17T13:16:44.821Z,2.90
2018-03-17T13:19:10.786Z,2.90
2018-03-17T13:21:37.588Z,2.90
2018-03-17T13:24:03.532Z,2.90
2018-03-17T13:26:29.511Z,3.00
2018-03-17T13:28:55.473Z,2.90
2018-03-17T13:31:21.496Z,3.00
2018-03-17T13:33:47.458Z,3.00
2018-03-17T13:36:13.454Z,3.00
2018-03-17T13:38:40.153Z,3.10
2018-03-17T13:41:06.125Z,3.00
2018-03-17T13:43:32.800Z,3.00
2018-03-17T13:45:58.753Z,3.00
2018-03-17T13:48:24.865Z,3.00
2018-03-17T13:50:50.905Z,3.00
2018-03-17T13:53:16.917Z,3.00
2018-03-17T13:55:42.861Z,2.90
2018-03-17T13:58:08.835Z,3.00
2018-03-17T14:00:34.820Z,2.80
2018-03-17T14:03:01.657Z,2.70
2018-03-17T14:05:28.345Z,2.80
2018-03-17T14:07:54.360Z,2.80
2018-03-17T14:10:20.375Z,2.80
2018-03-17T14:12:46.376Z,2.80
2018-03-17T14:15:13.244Z,2.80
2018-03-17T14:17:39.195Z,2.80
2018-03-17T14:20:05.287Z,2.70
2018-03-17T14:22:31.242Z,2.70
2018-03-17T14:24:57.205Z,2.60
2018-03-17T14:27:23.913Z,2.70
2018-03-17T14:29:49.913Z,2.70
2018-03-17T14:32:15.881Z,2.60
2018-03-17T14:34:41.900Z,2.60
2018-03-17T14:37:07.860Z,2.50
2018-03-17T14:39:33.881Z,2.50
2018-03-17T14:41:59.852Z,2.50
2018-03-17T14:44:25.843Z,2.50
2018-03-17T14:46:51.844Z,2.40
2018-03-17T14:49:17.790Z,2.40
2018-03-17T14:51:43.794Z,2.30
2018-03-17T14:54:09.740Z,2.30
2018-03-17T14:56:35.736Z,2.30
2018-03-17T14:59:01.776Z,2.20
2018-03-17T15:01:27.780Z,2.20
2018-03-17T15:03:53.741Z,2.10
2018-03-17T15:06:19.842Z,2.10
2018-03-17T15:08:45.800Z,2.10
2018-03-17T15:11:11.775Z,2.20
2018-03-17T15:13:37.797Z,2.20
2018-03-17T15:16:03.899Z,2.30
2018-03-17T15:18:30.614Z,2.20
2018-03-17T15:20:56.574Z,2.20
2018-03-17T15:23:23.411Z,2.10
2018-03-17T15:25:50.120Z,2.10
2018-03-17T15:28:16.072Z,2.00
2018-03-17T15:30:42.791Z,1.90
2018-03-17T15:33:08.756Z,1.90
2018-03-17T15:35:34.739Z,1.90
2018-03-17T15:38:00.681Z,1.80
2018-03-17T15:40:26.782Z,1.80
2018-03-17T15:42:52.728Z,1.80
2018-03-17T15:45:18.714Z,1.80
2018-03-17T15:47:44.657Z,1.80
2018-03-17T15:50:10.652Z,1.70
2018-03-17T15:52:36.633Z,1.70
2018-03-17T15:55:02.768Z,1.70
2018-03-17T15:57:28.759Z,1.70
2018-03-17T15:59:55.528Z,1.80
2018-03-17T16:02:22.204Z,1.80
2018-03-17T16:04:48.211Z,1.80
2018-03-17T16:07:14.173Z,1.90
2018-03-17T16:09:40.294Z,1.90
2018-03-17T16:12:06.235Z,1.90
2018-03-17T16:14:32.347Z,1.80
2018-03-17T16:16:59.188Z,1.80
2018-03-17T16:19:25.881Z,1.80
2018-03-17T16:21:51.848Z,1.70
2018-03-17T16:24:18.542Z,1.70
2018-03-17T16:26:44.572Z,1.70
2018-03-17T16:29:10.541Z,1.70
2018-03-17T16:31:36.566Z,1.60
2018-03-17T16:34:03.265Z,1.60
2018-03-17T16:36:29.249Z,1.60
2018-03-17T16:38:55.236Z,1.50
2018-03-17T16:41:21.332Z,1.50
2018-03-17T16:43:47.268Z,1.50
2018-03-17T16:46:13.219Z,1.60
2018-03-17T16:48:39.228Z,1.60
2018-03-17T16:51:05.183Z,1.60
2018-03-17T16:53:31.180Z,1.60
2018-03-17T16:55:57.893Z,1.60
2018-03-17T16:58:23.913Z,1.60
2018-03-17T17:00:49.877Z,1.50
2018-03-17T17:03:16.792Z,1.40
2018-03-17T17:05:42.752Z,1.40
2018-03-17T17:08:08.710Z,1.40
2018-03-17T17:10:34.705Z,1.30
2018-03-17T17:13:00.659Z,1.20
2018-03-17T17:15:26.966Z,1.20
2018-03-17T17:17:52.939Z,1.20
2018-03-17T17:20:18.940Z,1.20
2018-03-17T17:22:44.892Z,1.20
2018-03-17T17:25:10.838Z,1.20
2018-03-17T17:27:36.804Z,1.30
2018-03-17T17:30:02.776Z,1.20
2018-03-17T17:32:28.760Z,1.20
2018-03-17T17:34:54.721Z,1.30
2018-03-17T17:37:20.808Z,1.20
2018-03-17T17:39:46.757Z,1.20
2018-03-17T17:42:13.516Z,1.10
2018-03-17T17:44:39.468Z,1.10
2018-03-17T17:47:05.424Z,1.10
2018-03-17T17:49:31.441Z,1.10
2018-03-17T17:51:57.416Z,1.00
2018-03-17T17:54:23.458Z,1.10
2018-03-17T17:56:49.405Z,1.00
2018-03-17T17:59:15.371Z,0.90
2018-03-17T18:01:41.394Z,0.90
2018-03-17T18:04:07.335Z,0.90
2018-03-17T18:06:33.350Z,1.00
2018-03-17T18:08:59.316Z,1.00
2018-03-17T18:11:25.265Z,1.00
2018-03-17T18:13:52.236Z,0.90
2018-03-17T18:16:18.233Z,0.80
2018-03-17T18:18:44.959Z,0.80
2018-03-17T18:21:11.759Z,0.90
2018-03-17T18:23:37.708Z,0.80
2018-03-17T18:26:03.677Z,0.80
2018-03-17T18:28:30.447Z,0.80
2018-03-17T18:30:56.433Z,0.80
2018-03-17T18:33:22.437Z,0.80
2018-03-17T18:35:48.497Z,0.70
2018-03-17T18:38:14.455Z,0.70
2018-03-17T18:40:40.574Z,0.60
2018-03-17T18:43:06.527Z,0.60
2018-03-17T18:45:32.636Z,0.50
2018-03-17T18:47:58.603Z,0.60
2018-03-17T18:50:24.609Z,0.60
2018-03-17T18:52:51.310Z,0.60
2018-03-17T18:55:17.261Z,0.60
2018-03-17T18:57:43.996Z,0.60
2018-03-17T19:00:10.706Z,0.60
2018-03-17T19:02:36.809Z,0.60
2018-03-17T19:05:02.788Z,0.60
2018-03-17T19:07:28.728Z,0.60
2018-03-17T19:09:54.668Z,0.50
2018-03-17T19:12:20.666Z,0.50
2018-03-17T19:14:46.789Z,0.60
2018-03-17T19:17:13.508Z,0.60
2018-03-17T19:19:39.503Z,0.60
2018-03-17T19:22:05.454Z,0.70
2018-03-17T19:24:31.451Z,0.60
2018-03-17T19:26:57.424Z,0.60
2018-03-17T19:29:23.520Z,0.50
2018-03-17T19:31:49.487Z,0.50
2018-03-17T19:34:15.509Z,0.50
2018-03-17T19:36:41.464Z,0.50
2018-03-17T19:39:07.405Z,0.40
2018-03-17T19:41:33.386Z,0.40
2018-03-17T19:43:59.480Z,0.40
2018-03-17T19:46:26.201Z,0.30
2018-03-17T19:48:52.157Z,0.30
2018-03-17T19:51:18.181Z,0.30
2018-03-17T19:53:44.131Z,0.20
2018-03-17T19:56:10.137Z,0.10
2018-03-17T19:58:36.084Z,0.10
2018-03-17T20:01:02.029Z,0.10
2018-03-17T20:03:28.117Z,0.10
2018-03-17T20:05:54.796Z,0.00
2018-03-17T20:08:20.786Z,0.00
2018-03-17T20:10:46.759Z,0.10
2018-03-17T20:13:13.579Z,0.10
2018-03-17T20:15:39.615Z,0.10
2018-03-17T20:18:06.342Z,0.20
2018-03-17T20:20:32.477Z,0.20
2018-03-17T20:22:58.443Z,0.20
2018-03-17T20:25:24.450Z,0.20
2018-03-17T20:27:50.444Z,0.20
2018-03-17T20:30:16.409Z,0.20
2018-03-17T20:32:42.523Z,0.20
2018-03-17T20:35:08.491Z,0.20
2018-03-17T20:37:34.483Z,0.20
2018-03-17T20:40:00.432Z,0.20
2018-03-17T20:42:26.564Z,0.10
2018-03-17T20:44:52.516Z,0.10
2018-03-17T20:47:19.286Z,0.00
2018-03-17T20:49:45.245Z,0.00
2018-03-17T20:52:11.180Z,0.10
2018-03-17T20:54:37.205Z,0.00
2018-03-17T20:57:03.203Z,0.10
2018-03-17T20:59:29.178Z,0.10
2018-03-17T21:01:55.861Z,0.00
2018-03-17T21:04:21.790Z,0.00
2018-03-17T21:06:47.915Z,0.00
2018-03-17T21:09:13.869Z,-0.10
2018-03-17T21:11:40.602Z,-0.20
2018-03-17T21:14:06.736Z,-0.30
2018-03-17T21:16:32.668Z,-0.30
2018-03-17T21:18:59.378Z,-0.30
2018-03-17T21:21:25.502Z,-0.30
2018-03-17T21:23:51.468Z,-0.30
2018-03-17T21:26:17.478Z,-0.40
2018-03-17T21:28:44.166Z,-0.40
2018-03-17T21:31:10.119Z,-0.40
2018-03-17T21:33:36.225Z,-0.40
2018-03-17T21:36:02.189Z,-0.50
2018-03-17T21:38:28.912Z,-0.40
2018-03-17T21:40:54.933Z,-0.40
2018-03-17T21:43:20.874Z,-0.50
2018-03-17T21:45:47.585Z,-0.60
2018-03-17T21:48:13.697Z,-0.60
2018-03-17T21:50:39.656Z,-0.50
2018-03-17T21:53:06.466Z,-0.60
2018-03-17T21:55:32.421Z,-0.60
2018-03-17T21:57:59.152Z,-0.60
2018-03-17T22:00:25.879Z,-0.60
2018-03-17T22:02:51.917Z,-0.60
2018-03-17T22:05:18.648Z,-0.60
2018-03-17T22:07:44.781Z,-0.60
2018-03-17T22:10:10.717Z,-0.60
2018-03-17T22:12:37.445Z,-0.70
2018-03-17T22:15:04.274Z,-0.70
2018-03-17T22:17:30.247Z,-0.70
2018-03-17T22:19:56.233Z,-0.70
2018-03-17T22:22:22.995Z,-0.70
2018-03-17T22:24:49.096Z,-0.70
2018-03-17T22:27:15.832Z,-0.70
2018-03-17T22:29:42.512Z,-0.70
2018-03-17T22:32:08.480Z,-0.80
2018-03-17T22:34:34.457Z,-0.70
2018-03-17T22:37:00.408Z,-0.60
2018-03-17T22:39:26.425Z,-0.60
2018-03-17T22:41:52.383Z,-0.70
2018-03-17T22:44:19.098Z,-0.80
2018-03-17T22:46:45.119Z,-0.80
2018-03-17T22:49:11.062Z,-0.90
2018-03-17T22:51:37.050Z,-0.80
2018-03-17T22:54:03.018Z,-0.80
2018-03-17T22:56:29.847Z,-0.90
2018-03-17T22:58:55.792Z,-1.00
2018-03-17T23:01:22.519Z,-0.90
2018-03-17T23:03:49.218Z,-1.00
2018-03-17T23:06:15.216Z,-1.10
2018-03-17T23:08:41.169Z,-1.10
2018-03-17T23:11:07.105Z,-1.20
2018-03-17T23:13:33.208Z,-1.20
2018-03-17T23:15:59.179Z,-1.30
2018-03-17T23:18:25.167Z,-1.40
2018-03-17T23:20:51.114Z,-1.50
2018-03-17T23:23:17.820Z,-1.50
2018-03-17T23:25:43.788Z,-1.50
2018-03-17T23:28:10.657Z,-1.50
2018-03-17T23:30:36.602Z,-1.60
2018-03-17T23:33:02.546Z,-1.50
2018-03-17T23:35:28.514Z,-1.50
2018-03-17T23:37:54.444Z,-1.50
2018-03-17T23:40:20.413Z,-1.50
2018-03-17T23:42:46.351Z,-1.50
2018-03-17T23:45:13.176Z,-1.60
2018-03-17T23:47:39.128Z,-1.60
2018-03-17T23:50:05.863Z,-1.60
2018-03-17T23:52:32.552Z,-1.70
2018-03-17T23:54:58.503Z,-1.70
2018-03-17T23:57:24.471Z,-1.70
2018-03-17T23:59:50.448Z,-1.80
